sensor_id;sensor_type;location;lat;lon;timestamp;temperature;humidity
20208;DHT22;10263;48.716;8.760;2023-12-29T00:01:13;7.70;99.90
20208;DHT22;10263;48.716;8.760;2023-12-29T00:06:08;7.40;99.90
20208;DHT22;10263;48.716;8.760;2023-12-29T00:08:36;7.40;99.90
20208;DHT22;10263;48.716;8.760;2023-12-29T00:11:03;7.40;99.90
20208;DHT22;10263;48.716;8.760;2023-12-29T00:13:30;7.60;99.90
20208;DHT22;10263;48.716;8.760;2023-12-29T00:15:57;7.10;99.90
20208;DHT22;10263;48.716;8.760;2023-12-29T00:18:23;7.20;99.90
20208;DHT22;10263;48.716;8.760;2023-12-29T00:20:51;7.60;99.90
20208;DHT22;10263;48.716;8.760;2023-12-29T00:23:19;7.10;99.90
20208;DHT22;10263;48.716;8.760;2023-12-29T00:28:13;7.60;99.90
20208;DHT22;10263;48.716;8.760;2023-12-29T00:30:40;7.40;99.90
20208;DHT22;10263;48.716;8.760;2023-12-29T00:33:06;7.80;99.90
20208;DHT22;10263;48.716;8.760;2023-12-29T00:35:36;7.60;99.90
20208;DHT22;10263;48.716;8.760;2023-12-29T00:38:03;7.70;99.90
20208;DHT22;10263;48.716;8.760;2023-12-29T00:40:32;7.70;99.90
20208;DHT22;10263;48.716;8.760;2023-12-29T00:43:00;7.70;99.90
20208;DHT22;10263;48.716;8.760;2023-12-29T00:45:26;7.60;99.90
20208;DHT22;10263;48.716;8.760;2023-12-29T00:47:57;7.40;99.90
20208;DHT22;10263;48.716;8.760;2023-12-29T00:50:24;7.50;99.90
20208;DHT22;10263;48.716;8.760;2023-12-29T00:55:19;7.40;99.90
20208;DHT22;10263;48.716;8.760;2023-12-29T00:57:47;7.50;99.90
20208;DHT22;10263;48.716;8.760;2023-12-29T01:00:14;7.40;99.90
20208;DHT22;10263;48.716;8.760;2023-12-29T01:02:41;7.70;99.90
20208;DHT22;10263;48.716;8.760;2023-12-29T01:05:08;7.50;99.90
20208;DHT22;10263;48.716;8.760;2023-12-29T01:14:57;7.30;99.90
20208;DHT22;10263;48.716;8.760;2023-12-29T01:17:25;7.70;99.90
20208;DHT22;10263;48.716;8.760;2023-12-29T01:19:53;7.40;99.90
20208;DHT22;10263;48.716;8.760;2023-12-29T01:24:48;7.80;99.90
20208;DHT22;10263;48.716;8.760;2023-12-29T01:29:42;7.60;99.90
20208;DHT22;10263;48.716;8.760;2023-12-29T01:32:10;7.30;99.90
20208;DHT22;10263;48.716;8.760;2023-12-29T01:34:37;7.70;99.90
20208;DHT22;10263;48.716;8.760;2023-12-29T01:37:04;7.70;99.90
20208;DHT22;10263;48.716;8.760;2023-12-29T01:39:30;7.60;99.90
20208;DHT22;10263;48.716;8.760;2023-12-29T01:44:24;7.30;99.90
20208;DHT22;10263;48.716;8.760;2023-12-29T01:46:53;7.40;99.90
20208;DHT22;10263;48.716;8.760;2023-12-29T01:49:22;7.80;99.90
20208;DHT22;10263;48.716;8.760;2023-12-29T01:51:51;7.60;99.90
20208;DHT22;10263;48.716;8.760;2023-12-29T01:56:46;7.60;99.90
20208;DHT22;10263;48.716;8.760;2023-12-29T01:59:15;7.60;99.90
20208;DHT22;10263;48.716;8.760;2023-12-29T02:01:42;7.80;99.90
20208;DHT22;10263;48.716;8.760;2023-12-29T02:04:12;7.70;99.90
20208;DHT22;10263;48.716;8.760;2023-12-29T02:06:41;7.50;99.90
20208;DHT22;10263;48.716;8.760;2023-12-29T02:09:08;7.30;99.90
20208;DHT22;10263;48.716;8.760;2023-12-29T02:14:02;7.80;99.90
20208;DHT22;10263;48.716;8.760;2023-12-29T02:16:34;7.50;99.90
20208;DHT22;10263;48.716;8.760;2023-12-29T02:19:09;7.30;99.90
20208;DHT22;10263;48.716;8.760;2023-12-29T02:21:41;7.40;99.90
20208;DHT22;10263;48.716;8.760;2023-12-29T02:24:08;7.70;99.90
20208;DHT22;10263;48.716;8.760;2023-12-29T02:26:36;7.60;99.90
20208;DHT22;10263;48.716;8.760;2023-12-29T02:29:06;7.40;99.90
20208;DHT22;10263;48.716;8.760;2023-12-29T02:31:38;7.50;99.90
20208;DHT22;10263;48.716;8.760;2023-12-29T02:34:07;7.50;99.90
20208;DHT22;10263;48.716;8.760;2023-12-29T02:36:34;7.60;99.90
20208;DHT22;10263;48.716;8.760;2023-12-29T02:41:37;7.60;99.90
20208;DHT22;10263;48.716;8.760;2023-12-29T02:44:04;7.60;99.90
20208;DHT22;10263;48.716;8.760;2023-12-29T02:46:30;7.40;99.90
20208;DHT22;10263;48.716;8.760;2023-12-29T02:48:57;7.60;99.90
20208;DHT22;10263;48.716;8.760;2023-12-29T02:53:52;7.50;99.90
20208;DHT22;10263;48.716;8.760;2023-12-29T02:56:18;7.20;99.90
20208;DHT22;10263;48.716;8.760;2023-12-29T02:58:46;7.20;99.90
20208;DHT22;10263;48.716;8.760;2023-12-29T03:03:40;7.50;99.90
20208;DHT22;10263;48.716;8.760;2023-12-29T03:06:07;7.40;99.90
20208;DHT22;10263;48.716;8.760;2023-12-29T03:11:01;7.30;99.90
20208;DHT22;10263;48.716;8.760;2023-12-29T03:13:28;7.50;99.90
20208;DHT22;10263;48.716;8.760;2023-12-29T03:15:58;7.40;99.90
20208;DHT22;10263;48.716;8.760;2023-12-29T03:28:13;7.50;99.90
20208;DHT22;10263;48.716;8.760;2023-12-29T03:30:40;7.40;99.90
20208;DHT22;10263;48.716;8.760;2023-12-29T03:33:08;7.50;99.90
20208;DHT22;10263;48.716;8.760;2023-12-29T03:40:29;6.90;99.90
20208;DHT22;10263;48.716;8.760;2023-12-29T03:45:24;7.00;99.90
20208;DHT22;10263;48.716;8.760;2023-12-29T03:47:51;6.80;99.90
20208;DHT22;10263;48.716;8.760;2023-12-29T03:50:19;7.10;99.90
20208;DHT22;10263;48.716;8.760;2023-12-29T03:55:13;7.40;99.90
20208;DHT22;10263;48.716;8.760;2023-12-29T03:57:40;7.00;99.90
20208;DHT22;10263;48.716;8.760;2023-12-29T04:00:12;7.00;99.90
20208;DHT22;10263;48.716;8.760;2023-12-29T04:02:39;7.00;99.90
20208;DHT22;10263;48.716;8.760;2023-12-29T04:05:08;7.20;99.90
20208;DHT22;10263;48.716;8.760;2023-12-29T04:07:36;7.20;99.90
20208;DHT22;10263;48.716;8.760;2023-12-29T04:10:03;7.00;99.90
20208;DHT22;10263;48.716;8.760;2023-12-29T04:12:30;7.20;99.90
20208;DHT22;10263;48.716;8.760;2023-12-29T04:14:57;7.40;99.90
20208;DHT22;10263;48.716;8.760;2023-12-29T04:17:24;7.20;99.90
20208;DHT22;10263;48.716;8.760;2023-12-29T04:19:51;7.00;99.90
20208;DHT22;10263;48.716;8.760;2023-12-29T04:22:19;7.00;99.90
20208;DHT22;10263;48.716;8.760;2023-12-29T04:24:47;7.30;99.90
20208;DHT22;10263;48.716;8.760;2023-12-29T04:29:43;7.20;99.90
20208;DHT22;10263;48.716;8.760;2023-12-29T04:32:10;7.30;99.90
20208;DHT22;10263;48.716;8.760;2023-12-29T04:34:36;7.20;99.90
20208;DHT22;10263;48.716;8.760;2023-12-29T04:37:03;6.90;99.90
20208;DHT22;10263;48.716;8.760;2023-12-29T04:39:31;7.40;99.90
20208;DHT22;10263;48.716;8.760;2023-12-29T04:41:59;7.40;99.90
20208;DHT22;10263;48.716;8.760;2023-12-29T04:49:20;7.30;99.90
20208;DHT22;10263;48.716;8.760;2023-12-29T04:54:14;7.20;99.90
20208;DHT22;10263;48.716;8.760;2023-12-29T04:56:41;7.10;99.90
20208;DHT22;10263;48.716;8.760;2023-12-29T04:59:09;7.30;99.90
20208;DHT22;10263;48.716;8.760;2023-12-29T05:04:03;6.90;99.90
20208;DHT22;10263;48.716;8.760;2023-12-29T05:06:30;7.40;99.90
20208;DHT22;10263;48.716;8.760;2023-12-29T05:08:57;7.00;99.90
20208;DHT22;10263;48.716;8.760;2023-12-29T05:11:24;7.20;99.90
20208;DHT22;10263;48.716;8.760;2023-12-29T05:13:51;7.00;99.90
20208;DHT22;10263;48.716;8.760;2023-12-29T05:16:19;7.30;99.90
20208;DHT22;10263;48.716;8.760;2023-12-29T05:18:46;7.00;99.90
20208;DHT22;10263;48.716;8.760;2023-12-29T05:21:16;7.30;99.90
20208;DHT22;10263;48.716;8.760;2023-12-29T05:23:44;7.10;99.90
20208;DHT22;10263;48.716;8.760;2023-12-29T05:33:38;7.20;99.90
20208;DHT22;10263;48.716;8.760;2023-12-29T05:36:10;7.30;99.90
20208;DHT22;10263;48.716;8.760;2023-12-29T05:41:05;7.20;99.90
20208;DHT22;10263;48.716;8.760;2023-12-29T05:43:32;7.10;99.90
20208;DHT22;10263;48.716;8.760;2023-12-29T05:50:55;7.20;99.90
20208;DHT22;10263;48.716;8.760;2023-12-29T05:53:22;7.00;99.90
20208;DHT22;10263;48.716;8.760;2023-12-29T05:55:49;7.50;99.90
20208;DHT22;10263;48.716;8.760;2023-12-29T05:58:15;7.50;99.90
20208;DHT22;10263;48.716;8.760;2023-12-29T06:00:42;7.50;99.90
20208;DHT22;10263;48.716;8.760;2023-12-29T06:05:37;7.10;99.90
20208;DHT22;10263;48.716;8.760;2023-12-29T06:08:06;7.50;99.90
20208;DHT22;10263;48.716;8.760;2023-12-29T06:13:02;7.40;99.90
20208;DHT22;10263;48.716;8.760;2023-12-29T06:15:29;7.40;99.90
20208;DHT22;10263;48.716;8.760;2023-12-29T06:17:56;7.40;99.90
20208;DHT22;10263;48.716;8.760;2023-12-29T06:25:19;7.10;99.90
20208;DHT22;10263;48.716;8.760;2023-12-29T06:27:46;7.40;99.90
20208;DHT22;10263;48.716;8.760;2023-12-29T06:30:14;7.70;99.90
20208;DHT22;10263;48.716;8.760;2023-12-29T06:32:41;7.30;99.90
20208;DHT22;10263;48.716;8.760;2023-12-29T06:35:08;7.20;99.90
20208;DHT22;10263;48.716;8.760;2023-12-29T06:37:36;7.30;99.90
20208;DHT22;10263;48.716;8.760;2023-12-29T06:40:04;7.50;99.90
20208;DHT22;10263;48.716;8.760;2023-12-29T06:42:32;7.30;99.90
20208;DHT22;10263;48.716;8.760;2023-12-29T06:49:53;7.60;99.90
20208;DHT22;10263;48.716;8.760;2023-12-29T06:52:20;7.30;99.90
20208;DHT22;10263;48.716;8.760;2023-12-29T06:54:47;7.60;99.90
20208;DHT22;10263;48.716;8.760;2023-12-29T06:57:14;7.40;99.90
20208;DHT22;10263;48.716;8.760;2023-12-29T06:59:43;7.20;99.90
20208;DHT22;10263;48.716;8.760;2023-12-29T07:02:10;7.20;99.90
20208;DHT22;10263;48.716;8.760;2023-12-29T07:07:04;7.40;99.90
20208;DHT22;10263;48.716;8.760;2023-12-29T07:09:31;7.50;99.90
20208;DHT22;10263;48.716;8.760;2023-12-29T07:11:57;7.50;99.90
20208;DHT22;10263;48.716;8.760;2023-12-29T07:14:24;7.60;99.90
20208;DHT22;10263;48.716;8.760;2023-12-29T07:16:52;7.30;99.90
20208;DHT22;10263;48.716;8.760;2023-12-29T07:19:19;7.40;99.90
20208;DHT22;10263;48.716;8.760;2023-12-29T07:26:40;7.70;99.90
20208;DHT22;10263;48.716;8.760;2023-12-29T07:31:38;7.20;99.90
20208;DHT22;10263;48.716;8.760;2023-12-29T07:34:06;7.50;99.90
20208;DHT22;10263;48.716;8.760;2023-12-29T07:36:33;7.40;99.90
20208;DHT22;10263;48.716;8.760;2023-12-29T07:39:04;7.40;99.90
20208;DHT22;10263;48.716;8.760;2023-12-29T07:41:31;7.30;99.90
20208;DHT22;10263;48.716;8.760;2023-12-29T07:43:57;7.30;99.90
20208;DHT22;10263;48.716;8.760;2023-12-29T07:46:24;7.30;99.90
20208;DHT22;10263;48.716;8.760;2023-12-29T07:48:52;7.60;99.90
20208;DHT22;10263;48.716;8.760;2023-12-29T07:51:20;7.40;99.90
20208;DHT22;10263;48.716;8.760;2023-12-29T07:56:14;7.30;99.90
20208;DHT22;10263;48.716;8.760;2023-12-29T07:58:41;7.70;99.90
20208;DHT22;10263;48.716;8.760;2023-12-29T08:03:35;7.70;99.90
20208;DHT22;10263;48.716;8.760;2023-12-29T08:06:02;7.40;99.90
20208;DHT22;10263;48.716;8.760;2023-12-29T08:08:31;7.40;99.90
20208;DHT22;10263;48.716;8.760;2023-12-29T08:10:58;7.70;99.90
20208;DHT22;10263;48.716;8.760;2023-12-29T08:20:46;7.80;99.90
20208;DHT22;10263;48.716;8.760;2023-12-29T08:23:13;7.80;99.90
20208;DHT22;10263;48.716;8.760;2023-12-29T08:25:41;7.70;99.90
20208;DHT22;10263;48.716;8.760;2023-12-29T08:40:24;7.80;99.90
20208;DHT22;10263;48.716;8.760;2023-12-29T08:42:52;7.90;99.90
20208;DHT22;10263;48.716;8.760;2023-12-29T08:45:20;7.80;99.90
20208;DHT22;10263;48.716;8.760;2023-12-29T08:47:47;7.90;99.90
20208;DHT22;10263;48.716;8.760;2023-12-29T08:50:14;7.70;99.90
20208;DHT22;10263;48.716;8.760;2023-12-29T08:52:41;8.10;99.90
20208;DHT22;10263;48.716;8.760;2023-12-29T08:55:08;8.20;99.90
20208;DHT22;10263;48.716;8.760;2023-12-29T08:57:35;8.10;99.90
20208;DHT22;10263;48.716;8.760;2023-12-29T09:00:04;7.90;99.90
20208;DHT22;10263;48.716;8.760;2023-12-29T09:02:32;8.00;99.90
20208;DHT22;10263;48.716;8.760;2023-12-29T09:04:59;8.20;99.90
20208;DHT22;10263;48.716;8.760;2023-12-29T09:07:25;8.10;99.90
20208;DHT22;10263;48.716;8.760;2023-12-29T09:14:48;8.10;99.90
20208;DHT22;10263;48.716;8.760;2023-12-29T09:17:16;8.10;99.90
20208;DHT22;10263;48.716;8.760;2023-12-29T09:19:42;8.30;99.90
20208;DHT22;10263;48.716;8.760;2023-12-29T09:22:09;8.20;99.90
20208;DHT22;10263;48.716;8.760;2023-12-29T09:24:36;8.40;99.90
20208;DHT22;10263;48.716;8.760;2023-12-29T09:29:30;8.40;99.90
20208;DHT22;10263;48.716;8.760;2023-12-29T09:34:25;8.20;99.90
20208;DHT22;10263;48.716;8.760;2023-12-29T09:39:19;8.30;99.90
20208;DHT22;10263;48.716;8.760;2023-12-29T09:41:46;8.30;99.90
20208;DHT22;10263;48.716;8.760;2023-12-29T09:44:20;8.10;99.90
20208;DHT22;10263;48.716;8.760;2023-12-29T09:46:49;8.40;99.90
20208;DHT22;10263;48.716;8.760;2023-12-29T09:49:18;8.00;99.90
20208;DHT22;10263;48.716;8.760;2023-12-29T09:51:47;8.20;99.90
20208;DHT22;10263;48.716;8.760;2023-12-29T09:54:15;8.00;99.90
20208;DHT22;10263;48.716;8.760;2023-12-29T09:56:42;8.20;99.90
20208;DHT22;10263;48.716;8.760;2023-12-29T09:59:10;8.30;99.90
20208;DHT22;10263;48.716;8.760;2023-12-29T10:01:39;8.60;99.90
20208;DHT22;10263;48.716;8.760;2023-12-29T10:04:07;8.50;99.90
20208;DHT22;10263;48.716;8.760;2023-12-29T10:06:36;8.70;99.90
20208;DHT22;10263;48.716;8.760;2023-12-29T10:09:07;8.70;99.90
20208;DHT22;10263;48.716;8.760;2023-12-29T10:14:16;8.50;99.90
20208;DHT22;10263;48.716;8.760;2023-12-29T10:16:49;9.20;99.90
20208;DHT22;10263;48.716;8.760;2023-12-29T10:19:26;8.70;99.90
20208;DHT22;10263;48.716;8.760;2023-12-29T10:21:57;8.90;99.90
20208;DHT22;10263;48.716;8.760;2023-12-29T10:24:30;9.60;99.90
20208;DHT22;10263;48.716;8.760;2023-12-29T10:26:57;10.00;99.90
20208;DHT22;10263;48.716;8.760;2023-12-29T10:29:25;10.20;99.90
20208;DHT22;10263;48.716;8.760;2023-12-29T10:34:21;10.30;99.90
20208;DHT22;10263;48.716;8.760;2023-12-29T10:36:54;10.20;99.90
20208;DHT22;10263;48.716;8.760;2023-12-29T10:39:20;10.20;99.90
20208;DHT22;10263;48.716;8.760;2023-12-29T10:41:49;10.80;99.90
20208;DHT22;10263;48.716;8.760;2023-12-29T10:44:16;10.70;99.90
20208;DHT22;10263;48.716;8.760;2023-12-29T10:49:13;10.70;99.90
20208;DHT22;10263;48.716;8.760;2023-12-29T10:51:40;11.30;99.90
20208;DHT22;10263;48.716;8.760;2023-12-29T10:56:34;12.50;99.90
20208;DHT22;10263;48.716;8.760;2023-12-29T10:59:03;12.90;99.90
20208;DHT22;10263;48.716;8.760;2023-12-29T11:03:58;13.00;99.90
20208;DHT22;10263;48.716;8.760;2023-12-29T11:06:25;13.00;99.90
20208;DHT22;10263;48.716;8.760;2023-12-29T11:11:20;12.80;99.90
20208;DHT22;10263;48.716;8.760;2023-12-29T11:13:47;12.50;99.90
20208;DHT22;10263;48.716;8.760;2023-12-29T11:16:16;12.50;99.90
20208;DHT22;10263;48.716;8.760;2023-12-29T11:18:47;12.70;99.90
20208;DHT22;10263;48.716;8.760;2023-12-29T11:21:14;12.70;99.90
20208;DHT22;10263;48.716;8.760;2023-12-29T11:26:09;13.00;99.90
20208;DHT22;10263;48.716;8.760;2023-12-29T11:28:36;12.90;99.90
20208;DHT22;10263;48.716;8.760;2023-12-29T11:33:39;12.60;99.90
20208;DHT22;10263;48.716;8.760;2023-12-29T11:36:11;12.50;99.90
20208;DHT22;10263;48.716;8.760;2023-12-29T11:38:47;12.50;99.90
20208;DHT22;10263;48.716;8.760;2023-12-29T11:41:26;12.60;99.90
20208;DHT22;10263;48.716;8.760;2023-12-29T11:46:34;12.00;99.90
20208;DHT22;10263;48.716;8.760;2023-12-29T11:49:03;13.00;99.90
20208;DHT22;10263;48.716;8.760;2023-12-29T11:51:31;13.00;99.90
20208;DHT22;10263;48.716;8.760;2023-12-29T11:53:59;13.20;99.90
20208;DHT22;10263;48.716;8.760;2023-12-29T11:56:31;13.30;99.90
20208;DHT22;10263;48.716;8.760;2023-12-29T11:59:12;13.50;99.90
20208;DHT22;10263;48.716;8.760;2023-12-29T12:01:39;13.60;99.90
20208;DHT22;10263;48.716;8.760;2023-12-29T12:04:35;13.40;99.90
20208;DHT22;10263;48.716;8.760;2023-12-29T12:07:03;13.00;99.90
20208;DHT22;10263;48.716;8.760;2023-12-29T12:09:30;12.80;99.90
20208;DHT22;10263;48.716;8.760;2023-12-29T12:11:58;13.10;99.90
20208;DHT22;10263;48.716;8.760;2023-12-29T12:14:44;13.10;99.90
20208;DHT22;10263;48.716;8.760;2023-12-29T12:17:11;13.20;99.90
20208;DHT22;10263;48.716;8.760;2023-12-29T12:19:39;12.70;99.90
20208;DHT22;10263;48.716;8.760;2023-12-29T12:24:35;12.40;99.90
20208;DHT22;10263;48.716;8.760;2023-12-29T12:27:03;12.20;99.90
20208;DHT22;10263;48.716;8.760;2023-12-29T12:29:30;12.10;99.90
20208;DHT22;10263;48.716;8.760;2023-12-29T12:31:57;12.00;99.90
20208;DHT22;10263;48.716;8.760;2023-12-29T12:36:55;13.30;99.90
20208;DHT22;10263;48.716;8.760;2023-12-29T12:39:25;13.30;99.90
20208;DHT22;10263;48.716;8.760;2023-12-29T12:42:04;13.20;99.90
20208;DHT22;10263;48.716;8.760;2023-12-29T12:44:31;13.50;99.90
20208;DHT22;10263;48.716;8.760;2023-12-29T12:46:59;13.40;99.90
20208;DHT22;10263;48.716;8.760;2023-12-29T12:49:29;13.60;99.90
20208;DHT22;10263;48.716;8.760;2023-12-29T12:51:57;13.80;99.90
20208;DHT22;10263;48.716;8.760;2023-12-29T12:54:24;13.70;99.90
20208;DHT22;10263;48.716;8.760;2023-12-29T12:56:51;14.10;99.90
20208;DHT22;10263;48.716;8.760;2023-12-29T12:59:18;14.00;99.90
20208;DHT22;10263;48.716;8.760;2023-12-29T13:04:12;13.40;99.90
20208;DHT22;10263;48.716;8.760;2023-12-29T13:06:40;13.10;99.90
20208;DHT22;10263;48.716;8.760;2023-12-29T13:09:09;13.20;99.90
20208;DHT22;10263;48.716;8.760;2023-12-29T13:11:38;13.60;99.90
20208;DHT22;10263;48.716;8.760;2023-12-29T13:16:34;13.90;99.90
20208;DHT22;10263;48.716;8.760;2023-12-29T13:19:20;13.90;99.90
20208;DHT22;10263;48.716;8.760;2023-12-29T13:21:48;13.10;99.90
20208;DHT22;10263;48.716;8.760;2023-12-29T13:24:16;13.40;99.90
20208;DHT22;10263;48.716;8.760;2023-12-29T13:26:45;13.00;99.90
20208;DHT22;10263;48.716;8.760;2023-12-29T13:29:13;12.60;99.90
20208;DHT22;10263;48.716;8.760;2023-12-29T13:31:41;12.60;99.90
20208;DHT22;10263;48.716;8.760;2023-12-29T13:34:14;12.20;99.90
20208;DHT22;10263;48.716;8.760;2023-12-29T13:36:48;12.10;99.90
20208;DHT22;10263;48.716;8.760;2023-12-29T13:39:27;11.90;99.90
20208;DHT22;10263;48.716;8.760;2023-12-29T13:41:56;11.80;99.90
20208;DHT22;10263;48.716;8.760;2023-12-29T13:44:25;11.60;99.90
20208;DHT22;10263;48.716;8.760;2023-12-29T13:46:53;11.70;99.90
20208;DHT22;10263;48.716;8.760;2023-12-29T13:49:21;11.80;99.90
20208;DHT22;10263;48.716;8.760;2023-12-29T13:51:47;11.70;99.90
20208;DHT22;10263;48.716;8.760;2023-12-29T13:56:52;11.40;99.90
20208;DHT22;10263;48.716;8.760;2023-12-29T13:59:20;11.10;99.90
20208;DHT22;10263;48.716;8.760;2023-12-29T14:01:54;11.00;99.90
20208;DHT22;10263;48.716;8.760;2023-12-29T14:04:21;11.40;99.90
20208;DHT22;10263;48.716;8.760;2023-12-29T14:06:52;11.00;99.90
20208;DHT22;10263;48.716;8.760;2023-12-29T14:09:20;11.00;99.90
20208;DHT22;10263;48.716;8.760;2023-12-29T14:11:48;11.20;99.90
20208;DHT22;10263;48.716;8.760;2023-12-29T14:14:22;10.90;99.90
20208;DHT22;10263;48.716;8.760;2023-12-29T14:16:50;11.30;99.90
20208;DHT22;10263;48.716;8.760;2023-12-29T14:19:17;11.00;99.90
20208;DHT22;10263;48.716;8.760;2023-12-29T14:21:44;11.10;99.90
20208;DHT22;10263;48.716;8.760;2023-12-29T14:24:14;11.10;99.90
20208;DHT22;10263;48.716;8.760;2023-12-29T14:26:42;11.00;99.90
20208;DHT22;10263;48.716;8.760;2023-12-29T14:29:20;11.30;99.90
20208;DHT22;10263;48.716;8.760;2023-12-29T14:31:49;11.00;99.90
20208;DHT22;10263;48.716;8.760;2023-12-29T14:36:44;11.00;99.90
20208;DHT22;10263;48.716;8.760;2023-12-29T14:39:11;11.00;99.90
20208;DHT22;10263;48.716;8.760;2023-12-29T14:41:39;10.60;99.90
20208;DHT22;10263;48.716;8.760;2023-12-29T14:44:06;10.70;99.90
20208;DHT22;10263;48.716;8.760;2023-12-29T14:49:03;10.40;99.90
20208;DHT22;10263;48.716;8.760;2023-12-29T14:56:24;10.20;99.90
20208;DHT22;10263;48.716;8.760;2023-12-29T15:03:45;10.10;99.90
20208;DHT22;10263;48.716;8.760;2023-12-29T15:06:13;10.30;99.90
20208;DHT22;10263;48.716;8.760;2023-12-29T15:08:40;10.40;99.90
20208;DHT22;10263;48.716;8.760;2023-12-29T15:11:06;10.00;99.90
20208;DHT22;10263;48.716;8.760;2023-12-29T15:13:34;10.00;99.90
20208;DHT22;10263;48.716;8.760;2023-12-29T15:16:02;9.80;99.90
20208;DHT22;10263;48.716;8.760;2023-12-29T15:18:29;9.70;99.90
20208;DHT22;10263;48.716;8.760;2023-12-29T15:20:56;10.00;99.90
20208;DHT22;10263;48.716;8.760;2023-12-29T15:23:24;9.70;99.90
20208;DHT22;10263;48.716;8.760;2023-12-29T15:30:48;9.60;99.90
20208;DHT22;10263;48.716;8.760;2023-12-29T15:35:42;9.40;99.90
20208;DHT22;10263;48.716;8.760;2023-12-29T15:38:10;9.40;99.90
20208;DHT22;10263;48.716;8.760;2023-12-29T15:40:38;9.20;99.90
20208;DHT22;10263;48.716;8.760;2023-12-29T15:43:05;9.10;99.90
20208;DHT22;10263;48.716;8.760;2023-12-29T15:48:00;9.20;99.90
20208;DHT22;10263;48.716;8.760;2023-12-29T15:50:27;9.10;99.90
20208;DHT22;10263;48.716;8.760;2023-12-29T15:52:54;8.80;99.90
20208;DHT22;10263;48.716;8.760;2023-12-29T15:57:49;8.60;99.90
20208;DHT22;10263;48.716;8.760;2023-12-29T16:00:16;8.70;99.90
20208;DHT22;10263;48.716;8.760;2023-12-29T16:10:05;8.70;99.90
20208;DHT22;10263;48.716;8.760;2023-12-29T16:15:01;8.40;99.90
20208;DHT22;10263;48.716;8.760;2023-12-29T16:17:29;8.20;99.90
20208;DHT22;10263;48.716;8.760;2023-12-29T16:19:54;8.40;99.90
20208;DHT22;10263;48.716;8.760;2023-12-29T16:22:21;8.40;99.90
20208;DHT22;10263;48.716;8.760;2023-12-29T16:24:48;8.40;99.90
20208;DHT22;10263;48.716;8.760;2023-12-29T16:32:19;8.30;99.90
20208;DHT22;10263;48.716;8.760;2023-12-29T16:34:46;8.00;99.90
20208;DHT22;10263;48.716;8.760;2023-12-29T16:37:13;8.30;99.90
20208;DHT22;10263;48.716;8.760;2023-12-29T16:39:40;7.90;99.90
20208;DHT22;10263;48.716;8.760;2023-12-29T16:47:01;7.70;99.90
20208;DHT22;10263;48.716;8.760;2023-12-29T16:49:29;7.80;99.90
20208;DHT22;10263;48.716;8.760;2023-12-29T16:51:56;7.50;99.90
20208;DHT22;10263;48.716;8.760;2023-12-29T16:59:19;7.50;99.90
20208;DHT22;10263;48.716;8.760;2023-12-29T17:01:46;7.40;99.90
20208;DHT22;10263;48.716;8.760;2023-12-29T17:04:13;7.80;99.90
20208;DHT22;10263;48.716;8.760;2023-12-29T17:06:41;7.40;99.90
20208;DHT22;10263;48.716;8.760;2023-12-29T17:09:08;7.60;99.90
20208;DHT22;10263;48.716;8.760;2023-12-29T17:11:39;7.70;99.90
20208;DHT22;10263;48.716;8.760;2023-12-29T17:14:07;7.20;99.90
20208;DHT22;10263;48.716;8.760;2023-12-29T17:19:01;7.20;99.90
20208;DHT22;10263;48.716;8.760;2023-12-29T17:23:56;7.90;99.90
20208;DHT22;10263;48.716;8.760;2023-12-29T17:26:22;7.80;99.90
20208;DHT22;10263;48.716;8.760;2023-12-29T17:28:49;7.70;99.90
20208;DHT22;10263;48.716;8.760;2023-12-29T17:31:16;7.80;99.90
20208;DHT22;10263;48.716;8.760;2023-12-29T17:33:43;8.00;99.90
20208;DHT22;10263;48.716;8.760;2023-12-29T17:36:11;8.70;99.90
20208;DHT22;10263;48.716;8.760;2023-12-29T17:38:38;9.00;99.90
20208;DHT22;10263;48.716;8.760;2023-12-29T17:41:08;9.40;99.90
20208;DHT22;10263;48.716;8.760;2023-12-29T17:43:35;9.30;99.90
20208;DHT22;10263;48.716;8.760;2023-12-29T17:46:04;9.30;99.90
20208;DHT22;10263;48.716;8.760;2023-12-29T17:48:31;9.40;99.90
20208;DHT22;10263;48.716;8.760;2023-12-29T17:50:57;9.00;99.90
20208;DHT22;10263;48.716;8.760;2023-12-29T17:53:24;9.40;99.90
20208;DHT22;10263;48.716;8.760;2023-12-29T17:55:51;9.00;99.90
20208;DHT22;10263;48.716;8.760;2023-12-29T17:58:19;8.50;99.90
20208;DHT22;10263;48.716;8.760;2023-12-29T18:00:46;8.40;99.90
20208;DHT22;10263;48.716;8.760;2023-12-29T18:03:13;8.20;99.90
20208;DHT22;10263;48.716;8.760;2023-12-29T18:08:10;7.80;99.90
20208;DHT22;10263;48.716;8.760;2023-12-29T18:10:38;7.60;99.90
20208;DHT22;10263;48.716;8.760;2023-12-29T18:13:05;7.40;99.90
20208;DHT22;10263;48.716;8.760;2023-12-29T18:15:34;7.10;99.90
20208;DHT22;10263;48.716;8.760;2023-12-29T18:18:02;7.20;99.90
20208;DHT22;10263;48.716;8.760;2023-12-29T18:20:29;7.30;99.90
20208;DHT22;10263;48.716;8.760;2023-12-29T18:25:24;7.20;99.90
20208;DHT22;10263;48.716;8.760;2023-12-29T18:27:51;6.90;99.90
20208;DHT22;10263;48.716;8.760;2023-12-29T18:32:46;7.00;99.90
20208;DHT22;10263;48.716;8.760;2023-12-29T18:35:13;6.80;99.90
20208;DHT22;10263;48.716;8.760;2023-12-29T18:40:08;6.70;99.90
20208;DHT22;10263;48.716;8.760;2023-12-29T18:45:03;6.60;99.90
20208;DHT22;10263;48.716;8.760;2023-12-29T18:47:30;6.60;99.90
20208;DHT22;10263;48.716;8.760;2023-12-29T18:49:58;6.70;99.90
20208;DHT22;10263;48.716;8.760;2023-12-29T18:52:25;6.60;99.90
20208;DHT22;10263;48.716;8.760;2023-12-29T18:57:19;6.50;99.90
20208;DHT22;10263;48.716;8.760;2023-12-29T18:59:46;6.80;99.90
20208;DHT22;10263;48.716;8.760;2023-12-29T19:02:13;6.80;99.90
20208;DHT22;10263;48.716;8.760;2023-12-29T19:04:42;6.70;99.90
20208;DHT22;10263;48.716;8.760;2023-12-29T19:07:11;6.50;99.90
20208;DHT22;10263;48.716;8.760;2023-12-29T19:09:43;6.80;99.90
20208;DHT22;10263;48.716;8.760;2023-12-29T19:12:10;6.50;99.90
20208;DHT22;10263;48.716;8.760;2023-12-29T19:14:51;6.60;99.90
20208;DHT22;10263;48.716;8.760;2023-12-29T19:17:20;6.40;99.90
20208;DHT22;10263;48.716;8.760;2023-12-29T19:19:47;6.50;99.90
20208;DHT22;10263;48.716;8.760;2023-12-29T19:22:15;6.80;99.90
20208;DHT22;10263;48.716;8.760;2023-12-29T19:24:43;6.90;99.90
20208;DHT22;10263;48.716;8.760;2023-12-29T19:27:11;7.20;99.90
20208;DHT22;10263;48.716;8.760;2023-12-29T19:29:40;6.80;99.90
20208;DHT22;10263;48.716;8.760;2023-12-29T19:32:08;6.90;99.90
20208;DHT22;10263;48.716;8.760;2023-12-29T19:34:34;7.10;99.90
20208;DHT22;10263;48.716;8.760;2023-12-29T19:37:01;7.40;99.90
20208;DHT22;10263;48.716;8.760;2023-12-29T19:39:30;7.40;99.90
20208;DHT22;10263;48.716;8.760;2023-12-29T19:41:57;7.30;99.90
20208;DHT22;10263;48.716;8.760;2023-12-29T19:44:23;7.60;99.90
20208;DHT22;10263;48.716;8.760;2023-12-29T19:46:50;7.60;99.90
20208;DHT22;10263;48.716;8.760;2023-12-29T19:49:18;7.60;99.90
20208;DHT22;10263;48.716;8.760;2023-12-29T19:51:45;7.40;99.90
20208;DHT22;10263;48.716;8.760;2023-12-29T19:54:11;7.30;99.90
20208;DHT22;10263;48.716;8.760;2023-12-29T19:56:39;7.40;99.90
20208;DHT22;10263;48.716;8.760;2023-12-29T20:01:33;7.20;99.90